createdAt,value
2023-05-22T00:08:29.447Z,11.9
2023-05-22T00:38:46.997Z,13.6
2023-05-22T01:09:05.068Z,13.1
2023-05-22T01:39:22.568Z,17
2023-05-22T02:09:40.246Z,18.8
2023-05-22T02:39:57.976Z,16.7
2023-05-22T03:10:16.131Z,17.2
2023-05-22T03:40:34.436Z,19.2
2023-05-22T04:10:51.912Z,30.1
2023-05-22T04:41:10.364Z,19.3
2023-05-22T05:11:30.631Z,28.4
2023-05-22T05:41:52.896Z,19.3
2023-05-22T06:12:14.389Z,17.7
2023-05-22T06:42:42.379Z,19
2023-05-22T07:13:04.827Z,14.1
2023-05-22T07:43:25.737Z,10.9
2023-05-22T08:13:46.740Z,18.9
2023-05-22T08:44:05.314Z,12.7
2023-05-22T09:14:26.467Z,9.1
2023-05-22T09:44:52.123Z,9.8
2023-05-22T10:15:14.041Z,10.9
2023-05-22T10:45:23.871Z,10
2023-05-22T11:15:38.343Z,10.7
2023-05-22T11:46:14.956Z,11.5
2023-05-22T12:16:20.921Z,11.5
2023-05-22T12:46:38.768Z,11.7
2023-05-22T13:17:07.737Z,11
2023-05-22T13:47:19.911Z,10.4
2023-05-22T14:17:25.295Z,11.6
2023-05-22T14:47:43.608Z,13.7
2023-05-22T15:17:57.329Z,8.8
2023-05-22T15:48:10.723Z,8.3
2023-05-22T16:18:26.414Z,30.5
2023-05-22T16:48:38.613Z,39.4
2023-05-22T17:18:58.703Z,31.6
2023-05-22T17:49:17.134Z,30.2
2023-05-22T18:19:34.346Z,28.4
2023-05-22T18:49:51.847Z,27.2
2023-05-22T19:20:08.353Z,29.2
2023-05-22T19:50:26.231Z,31.2
2023-05-22T20:20:44.584Z,58.8
2023-05-22T20:51:00.382Z,65.9
2023-05-22T21:21:18.875Z,59.1
2023-05-22T21:51:36.670Z,57.4
2023-05-22T22:21:56.708Z,48.5
2023-05-22T22:52:12.915Z,45.2
2023-05-22T23:22:33.807Z,33.6
2023-05-22T23:52:52.683Z,25.4
